Hazte SocioAcceso socios

METEO en el Aeródromo de Mutxamel (LEMU)

Horarios

ESTAMOS EN UTC +2

ORTO: 04:36 (UTC)
OCASO: 19:28 (UTC)

Previsión en los próximos días en Windy

METAR del Aeropuerto de Alicante (LEAL)

LEAL 141200Z 08007KT 050V120 CAVOK 30/11 Q1015 NOSIG

TAF del Aeropuerto de Alicante (LEAL)

TAF LEAL 141100Z 1412/1512 10010KT 9999 FEW030 TX29/1412Z TN19/1505Z BECMG 1418/1421 27005KT BECMG 1507/1510 09011KT

Otros enlaces útiles

Renuncia de responsabilidad

La información meteorológica ofrecida en esta página es un servicio de cortesía del Club Deportivo ANR, basado en varias fuentes, y en ningún caso constituye una información oficial. Es responsabilidad del piloto al mando obtener la información meteorológica actualizada desde fuentes oficiales.

En España, la información meteorológica oficial la ofrece la Agencia Española de Meteorología en general y en particular, a través de su Autoservicio Meteorológico Aeronáutico.

Partida Almaina núm 92. 03110 Mutxamel (Alicante).España
info@clubdeportivoanr.com
Inscrito en registro EDCV número 11003/1
Inscrito en la RFAE número C-701
Asociado al Real Aero Club de España
Consulte nuestra política de privacidad